sensor_id;sensor_type;location;lat;lon;timestamp;P1;durP1;ratioP1;P2;durP2;ratioP2
14268;SDS011;7218;51.480;7.006;2022-12-18T00:02:02;65.23;;;35.77;;
14268;SDS011;7218;51.480;7.006;2022-12-18T00:04:29;60.90;;;35.53;;
14268;SDS011;7218;51.480;7.006;2022-12-18T00:06:56;66.67;;;35.57;;
14268;SDS011;7218;51.480;7.006;2022-12-18T00:09:22;59.90;;;35.17;;
14268;SDS011;7218;51.480;7.006;2022-12-18T00:11:50;66.80;;;35.03;;
14268;SDS011;7218;51.480;7.006;2022-12-18T00:14:18;67.30;;;36.33;;
14268;SDS011;7218;51.480;7.006;2022-12-18T00:16:45;64.07;;;36.37;;
14268;SDS011;7218;51.480;7.006;2022-12-18T00:19:12;63.47;;;35.87;;
14268;SDS011;7218;51.480;7.006;2022-12-18T00:21:40;62.70;;;35.47;;
14268;SDS011;7218;51.480;7.006;2022-12-18T00:24:08;66.27;;;36.60;;
14268;SDS011;7218;51.480;7.006;2022-12-18T00:26:36;65.10;;;36.67;;
14268;SDS011;7218;51.480;7.006;2022-12-18T00:29:08;64.70;;;36.43;;
14268;SDS011;7218;51.480;7.006;2022-12-18T00:31:39;68.70;;;37.77;;
14268;SDS011;7218;51.480;7.006;2022-12-18T00:34:06;64.37;;;35.97;;
14268;SDS011;7218;51.480;7.006;2022-12-18T00:36:33;65.77;;;36.70;;
14268;SDS011;7218;51.480;7.006;2022-12-18T00:39:02;60.17;;;34.47;;
14268;SDS011;7218;51.480;7.006;2022-12-18T00:41:30;59.40;;;34.80;;
14268;SDS011;7218;51.480;7.006;2022-12-18T00:44:17;65.27;;;35.63;;
14268;SDS011;7218;51.480;7.006;2022-12-18T00:46:45;61.80;;;35.30;;
14268;SDS011;7218;51.480;7.006;2022-12-18T00:49:12;66.43;;;36.33;;
14268;SDS011;7218;51.480;7.006;2022-12-18T00:51:39;64.97;;;36.60;;
14268;SDS011;7218;51.480;7.006;2022-12-18T00:54:05;62.63;;;35.40;;
14268;SDS011;7218;51.480;7.006;2022-12-18T00:56:32;62.10;;;34.63;;
14268;SDS011;7218;51.480;7.006;2022-12-18T00:59:02;61.63;;;36.50;;
14268;SDS011;7218;51.480;7.006;2022-12-18T01:01:31;68.97;;;36.77;;
14268;SDS011;7218;51.480;7.006;2022-12-18T01:03:59;63.20;;;35.53;;
14268;SDS011;7218;51.480;7.006;2022-12-18T01:06:27;66.07;;;35.73;;
14268;SDS011;7218;51.480;7.006;2022-12-18T01:08:54;65.27;;;34.73;;
14268;SDS011;7218;51.480;7.006;2022-12-18T01:11:21;58.90;;;34.47;;
14268;SDS011;7218;51.480;7.006;2022-12-18T01:13:48;59.67;;;33.30;;
14268;SDS011;7218;51.480;7.006;2022-12-18T01:16:16;61.07;;;34.10;;
14268;SDS011;7218;51.480;7.006;2022-12-18T01:18:45;64.27;;;36.40;;
14268;SDS011;7218;51.480;7.006;2022-12-18T01:21:13;64.50;;;35.13;;
14268;SDS011;7218;51.480;7.006;2022-12-18T01:23:41;60.17;;;34.63;;
14268;SDS011;7218;51.480;7.006;2022-12-18T01:26:08;63.93;;;35.00;;
14268;SDS011;7218;51.480;7.006;2022-12-18T01:28:36;65.40;;;36.33;;
14268;SDS011;7218;51.480;7.006;2022-12-18T01:31:10;71.70;;;40.30;;
14268;SDS011;7218;51.480;7.006;2022-12-18T01:33:37;75.40;;;40.10;;
14268;SDS011;7218;51.480;7.006;2022-12-18T01:36:06;73.57;;;39.00;;
14268;SDS011;7218;51.480;7.006;2022-12-18T01:38:33;70.60;;;38.20;;
14268;SDS011;7218;51.480;7.006;2022-12-18T01:41:00;64.67;;;35.30;;
14268;SDS011;7218;51.480;7.006;2022-12-18T01:46:14;55.83;;;33.17;;
14268;SDS011;7218;51.480;7.006;2022-12-18T01:48:42;57.53;;;33.60;;
14268;SDS011;7218;51.480;7.006;2022-12-18T01:51:13;57.67;;;32.17;;
14268;SDS011;7218;51.480;7.006;2022-12-18T01:53:40;55.40;;;31.53;;
14268;SDS011;7218;51.480;7.006;2022-12-18T01:56:08;53.03;;;30.80;;
14268;SDS011;7218;51.480;7.006;2022-12-18T01:58:40;55.57;;;31.07;;
14268;SDS011;7218;51.480;7.006;2022-12-18T02:01:12;55.17;;;30.33;;
14268;SDS011;7218;51.480;7.006;2022-12-18T02:03:40;56.27;;;31.80;;
14268;SDS011;7218;51.480;7.006;2022-12-18T02:06:09;54.90;;;29.97;;
14268;SDS011;7218;51.480;7.006;2022-12-18T02:08:45;55.73;;;31.10;;
14268;SDS011;7218;51.480;7.006;2022-12-18T02:11:22;55.10;;;30.50;;
14268;SDS011;7218;51.480;7.006;2022-12-18T02:14:02;57.37;;;30.87;;
14268;SDS011;7218;51.480;7.006;2022-12-18T02:16:39;54.77;;;30.13;;
14268;SDS011;7218;51.480;7.006;2022-12-18T02:19:15;53.83;;;30.13;;
14268;SDS011;7218;51.480;7.006;2022-12-18T02:21:57;53.30;;;31.43;;
14268;SDS011;7218;51.480;7.006;2022-12-18T02:24:33;58.17;;;30.60;;
14268;SDS011;7218;51.480;7.006;2022-12-18T02:27:09;51.80;;;29.63;;
14268;SDS011;7218;51.480;7.006;2022-12-18T02:29:39;53.17;;;29.67;;
14268;SDS011;7218;51.480;7.006;2022-12-18T02:32:09;53.47;;;30.43;;
14268;SDS011;7218;51.480;7.006;2022-12-18T02:34:40;55.93;;;30.93;;
14268;SDS011;7218;51.480;7.006;2022-12-18T02:37:12;56.37;;;29.70;;
14268;SDS011;7218;51.480;7.006;2022-12-18T02:39:42;55.67;;;31.43;;
14268;SDS011;7218;51.480;7.006;2022-12-18T02:42:13;54.50;;;30.40;;
14268;SDS011;7218;51.480;7.006;2022-12-18T02:44:44;56.77;;;30.93;;
14268;SDS011;7218;51.480;7.006;2022-12-18T02:47:12;55.13;;;29.90;;
14268;SDS011;7218;51.480;7.006;2022-12-18T02:49:44;51.13;;;30.20;;
14268;SDS011;7218;51.480;7.006;2022-12-18T02:52:18;55.23;;;29.53;;
14268;SDS011;7218;51.480;7.006;2022-12-18T02:54:55;54.60;;;30.30;;
14268;SDS011;7218;51.480;7.006;2022-12-18T02:57:31;51.57;;;29.70;;
14268;SDS011;7218;51.480;7.006;2022-12-18T03:00:07;52.07;;;29.07;;
14268;SDS011;7218;51.480;7.006;2022-12-18T03:02:38;52.87;;;30.03;;
14268;SDS011;7218;51.480;7.006;2022-12-18T03:05:12;48.80;;;28.83;;
14268;SDS011;7218;51.480;7.006;2022-12-18T03:07:43;56.27;;;30.60;;
14268;SDS011;7218;51.480;7.006;2022-12-18T03:10:14;53.90;;;30.43;;
14268;SDS011;7218;51.480;7.006;2022-12-18T03:12:46;55.63;;;30.47;;
14268;SDS011;7218;51.480;7.006;2022-12-18T03:15:18;53.90;;;29.83;;
14268;SDS011;7218;51.480;7.006;2022-12-18T03:17:50;55.57;;;29.87;;
14268;SDS011;7218;51.480;7.006;2022-12-18T03:20:21;58.50;;;31.33;;
14268;SDS011;7218;51.480;7.006;2022-12-18T03:22:52;53.97;;;30.07;;
14268;SDS011;7218;51.480;7.006;2022-12-18T03:25:23;58.07;;;29.50;;
14268;SDS011;7218;51.480;7.006;2022-12-18T03:27:55;53.20;;;30.37;;
14268;SDS011;7218;51.480;7.006;2022-12-18T03:30:25;57.40;;;31.07;;
14268;SDS011;7218;51.480;7.006;2022-12-18T03:32:56;56.63;;;30.43;;
14268;SDS011;7218;51.480;7.006;2022-12-18T03:35:30;52.57;;;29.80;;
14268;SDS011;7218;51.480;7.006;2022-12-18T03:37:59;59.47;;;31.40;;
14268;SDS011;7218;51.480;7.006;2022-12-18T03:40:26;53.70;;;29.80;;
14268;SDS011;7218;51.480;7.006;2022-12-18T03:42:59;53.23;;;29.37;;
14268;SDS011;7218;51.480;7.006;2022-12-18T03:45:34;55.93;;;29.67;;
14268;SDS011;7218;51.480;7.006;2022-12-18T03:48:04;52.70;;;29.43;;
14268;SDS011;7218;51.480;7.006;2022-12-18T03:50:37;54.00;;;29.73;;
14268;SDS011;7218;51.480;7.006;2022-12-18T03:53:17;53.10;;;29.30;;
14268;SDS011;7218;51.480;7.006;2022-12-18T03:55:49;53.00;;;29.13;;
14268;SDS011;7218;51.480;7.006;2022-12-18T03:58:19;53.33;;;30.30;;
14268;SDS011;7218;51.480;7.006;2022-12-18T04:00:52;49.77;;;27.77;;
14268;SDS011;7218;51.480;7.006;2022-12-18T04:03:22;53.30;;;28.30;;
14268;SDS011;7218;51.480;7.006;2022-12-18T04:05:49;50.87;;;28.83;;
14268;SDS011;7218;51.480;7.006;2022-12-18T04:08:18;48.83;;;28.30;;
14268;SDS011;7218;51.480;7.006;2022-12-18T04:10:46;47.23;;;27.47;;
14268;SDS011;7218;51.480;7.006;2022-12-18T04:13:22;49.60;;;27.90;;
14268;SDS011;7218;51.480;7.006;2022-12-18T04:15:49;48.97;;;27.50;;
14268;SDS011;7218;51.480;7.006;2022-12-18T04:18:18;46.90;;;27.53;;
14268;SDS011;7218;51.480;7.006;2022-12-18T04:20:44;49.00;;;26.50;;
14268;SDS011;7218;51.480;7.006;2022-12-18T04:23:11;50.20;;;27.53;;
14268;SDS011;7218;51.480;7.006;2022-12-18T04:25:38;53.93;;;26.93;;
14268;SDS011;7218;51.480;7.006;2022-12-18T04:28:05;44.60;;;26.57;;
14268;SDS011;7218;51.480;7.006;2022-12-18T04:30:33;49.40;;;28.10;;
14268;SDS011;7218;51.480;7.006;2022-12-18T04:32:59;50.30;;;27.27;;
14268;SDS011;7218;51.480;7.006;2022-12-18T04:35:25;49.57;;;27.57;;
14268;SDS011;7218;51.480;7.006;2022-12-18T04:37:53;49.07;;;26.73;;
14268;SDS011;7218;51.480;7.006;2022-12-18T04:40:48;49.73;;;26.40;;
14268;SDS011;7218;51.480;7.006;2022-12-18T04:43:14;46.53;;;26.37;;
14268;SDS011;7218;51.480;7.006;2022-12-18T04:45:42;46.73;;;26.93;;
14268;SDS011;7218;51.480;7.006;2022-12-18T04:48:08;49.23;;;26.93;;
14268;SDS011;7218;51.480;7.006;2022-12-18T04:50:35;50.53;;;27.20;;
14268;SDS011;7218;51.480;7.006;2022-12-18T04:53:01;44.03;;;24.23;;
14268;SDS011;7218;51.480;7.006;2022-12-18T04:55:28;44.93;;;26.93;;
14268;SDS011;7218;51.480;7.006;2022-12-18T04:57:54;48.47;;;26.70;;
14268;SDS011;7218;51.480;7.006;2022-12-18T05:00:21;45.70;;;26.17;;
14268;SDS011;7218;51.480;7.006;2022-12-18T05:02:49;45.93;;;27.17;;
14268;SDS011;7218;51.480;7.006;2022-12-18T05:05:16;45.33;;;26.27;;
14268;SDS011;7218;51.480;7.006;2022-12-18T05:07:42;46.93;;;26.43;;
14268;SDS011;7218;51.480;7.006;2022-12-18T05:10:09;48.13;;;25.67;;
14268;SDS011;7218;51.480;7.006;2022-12-18T05:12:35;47.73;;;26.63;;
14268;SDS011;7218;51.480;7.006;2022-12-18T05:15:22;49.77;;;25.17;;
14268;SDS011;7218;51.480;7.006;2022-12-18T05:17:50;47.57;;;26.23;;
14268;SDS011;7218;51.480;7.006;2022-12-18T05:20:17;43.10;;;24.30;;
14268;SDS011;7218;51.480;7.006;2022-12-18T05:22:44;43.97;;;23.80;;
14268;SDS011;7218;51.480;7.006;2022-12-18T05:25:11;42.87;;;24.87;;
14268;SDS011;7218;51.480;7.006;2022-12-18T05:27:37;45.53;;;25.47;;
14268;SDS011;7218;51.480;7.006;2022-12-18T05:30:04;43.63;;;24.53;;
14268;SDS011;7218;51.480;7.006;2022-12-18T05:32:31;44.00;;;24.20;;
14268;SDS011;7218;51.480;7.006;2022-12-18T05:34:59;42.47;;;24.30;;
14268;SDS011;7218;51.480;7.006;2022-12-18T05:37:26;41.77;;;24.90;;
14268;SDS011;7218;51.480;7.006;2022-12-18T05:39:52;40.57;;;24.50;;
14268;SDS011;7218;51.480;7.006;2022-12-18T05:42:19;41.47;;;24.07;;
14268;SDS011;7218;51.480;7.006;2022-12-18T05:44:46;41.90;;;22.87;;
14268;SDS011;7218;51.480;7.006;2022-12-18T05:47:12;42.73;;;23.97;;
14268;SDS011;7218;51.480;7.006;2022-12-18T05:49:38;41.03;;;23.63;;
14268;SDS011;7218;51.480;7.006;2022-12-18T05:52:06;43.47;;;24.60;;
14268;SDS011;7218;51.480;7.006;2022-12-18T05:54:33;42.37;;;24.03;;
14268;SDS011;7218;51.480;7.006;2022-12-18T05:56:59;43.30;;;24.73;;
14268;SDS011;7218;51.480;7.006;2022-12-18T05:59:26;43.57;;;23.17;;
14268;SDS011;7218;51.480;7.006;2022-12-18T06:01:52;42.87;;;22.37;;
14268;SDS011;7218;51.480;7.006;2022-12-18T06:04:19;38.93;;;21.83;;
14268;SDS011;7218;51.480;7.006;2022-12-18T06:06:45;39.43;;;22.47;;
14268;SDS011;7218;51.480;7.006;2022-12-18T06:09:13;39.53;;;22.03;;
14268;SDS011;7218;51.480;7.006;2022-12-18T06:11:40;40.80;;;21.87;;
14268;SDS011;7218;51.480;7.006;2022-12-18T06:14:06;36.83;;;22.40;;
14268;SDS011;7218;51.480;7.006;2022-12-18T06:16:33;40.30;;;22.67;;
14268;SDS011;7218;51.480;7.006;2022-12-18T06:19:00;39.20;;;22.80;;
14268;SDS011;7218;51.480;7.006;2022-12-18T06:21:28;39.33;;;22.87;;
14268;SDS011;7218;51.480;7.006;2022-12-18T06:23:55;39.40;;;23.37;;
14268;SDS011;7218;51.480;7.006;2022-12-18T06:26:23;41.83;;;23.20;;
14268;SDS011;7218;51.480;7.006;2022-12-18T06:28:50;41.93;;;23.50;;
14268;SDS011;7218;51.480;7.006;2022-12-18T06:31:16;40.93;;;23.13;;
14268;SDS011;7218;51.480;7.006;2022-12-18T06:33:43;38.07;;;23.23;;
14268;SDS011;7218;51.480;7.006;2022-12-18T06:36:10;40.73;;;23.77;;
14268;SDS011;7218;51.480;7.006;2022-12-18T06:38:39;42.10;;;22.37;;
14268;SDS011;7218;51.480;7.006;2022-12-18T06:41:07;43.77;;;23.97;;
14268;SDS011;7218;51.480;7.006;2022-12-18T06:43:35;44.80;;;25.23;;
14268;SDS011;7218;51.480;7.006;2022-12-18T06:46:02;44.90;;;24.80;;
14268;SDS011;7218;51.480;7.006;2022-12-18T06:48:30;44.43;;;24.67;;
14268;SDS011;7218;51.480;7.006;2022-12-18T06:50:57;43.03;;;24.60;;
14268;SDS011;7218;51.480;7.006;2022-12-18T06:53:24;41.23;;;24.83;;
14268;SDS011;7218;51.480;7.006;2022-12-18T06:55:50;42.03;;;23.70;;
14268;SDS011;7218;51.480;7.006;2022-12-18T06:58:17;43.53;;;23.57;;
14268;SDS011;7218;51.480;7.006;2022-12-18T07:00:45;38.73;;;23.17;;
14268;SDS011;7218;51.480;7.006;2022-12-18T07:03:11;38.97;;;22.93;;
14268;SDS011;7218;51.480;7.006;2022-12-18T07:05:39;36.37;;;21.83;;
14268;SDS011;7218;51.480;7.006;2022-12-18T07:08:06;39.03;;;22.43;;
14268;SDS011;7218;51.480;7.006;2022-12-18T07:10:32;37.73;;;22.37;;
14268;SDS011;7218;51.480;7.006;2022-12-18T07:12:59;37.43;;;21.90;;
14268;SDS011;7218;51.480;7.006;2022-12-18T07:15:25;40.13;;;21.27;;
14268;SDS011;7218;51.480;7.006;2022-12-18T07:17:53;38.87;;;20.90;;
14268;SDS011;7218;51.480;7.006;2022-12-18T07:20:19;36.97;;;20.80;;
14268;SDS011;7218;51.480;7.006;2022-12-18T07:22:46;35.27;;;19.87;;
14268;SDS011;7218;51.480;7.006;2022-12-18T07:25:12;34.77;;;20.57;;
14268;SDS011;7218;51.480;7.006;2022-12-18T07:27:39;33.03;;;20.07;;
14268;SDS011;7218;51.480;7.006;2022-12-18T07:30:06;35.13;;;20.67;;
14268;SDS011;7218;51.480;7.006;2022-12-18T07:32:33;37.23;;;20.33;;
14268;SDS011;7218;51.480;7.006;2022-12-18T07:35:01;33.40;;;19.47;;
14268;SDS011;7218;51.480;7.006;2022-12-18T07:37:28;33.93;;;19.70;;
14268;SDS011;7218;51.480;7.006;2022-12-18T07:39:54;34.70;;;20.47;;
14268;SDS011;7218;51.480;7.006;2022-12-18T07:42:21;32.67;;;20.27;;
14268;SDS011;7218;51.480;7.006;2022-12-18T07:44:57;34.80;;;19.70;;
14268;SDS011;7218;51.480;7.006;2022-12-18T07:47:23;32.03;;;20.00;;
14268;SDS011;7218;51.480;7.006;2022-12-18T07:49:50;32.33;;;19.33;;
14268;SDS011;7218;51.480;7.006;2022-12-18T07:52:21;35.40;;;19.77;;
14268;SDS011;7218;51.480;7.006;2022-12-18T07:54:47;38.50;;;20.27;;
14268;SDS011;7218;51.480;7.006;2022-12-18T07:57:15;32.57;;;19.37;;
14268;SDS011;7218;51.480;7.006;2022-12-18T07:59:41;31.57;;;18.73;;
14268;SDS011;7218;51.480;7.006;2022-12-18T08:02:08;30.50;;;18.33;;
14268;SDS011;7218;51.480;7.006;2022-12-18T08:04:34;31.47;;;18.90;;
14268;SDS011;7218;51.480;7.006;2022-12-18T08:07:01;29.90;;;18.20;;
14268;SDS011;7218;51.480;7.006;2022-12-18T08:09:29;31.17;;;18.67;;
14268;SDS011;7218;51.480;7.006;2022-12-18T08:11:55;33.63;;;20.23;;
14268;SDS011;7218;51.480;7.006;2022-12-18T08:14:21;30.63;;;18.53;;
14268;SDS011;7218;51.480;7.006;2022-12-18T08:16:48;29.97;;;18.53;;
14268;SDS011;7218;51.480;7.006;2022-12-18T08:19:15;31.30;;;18.10;;
14268;SDS011;7218;51.480;7.006;2022-12-18T08:21:41;30.70;;;17.93;;
14268;SDS011;7218;51.480;7.006;2022-12-18T08:24:08;32.17;;;17.93;;
14268;SDS011;7218;51.480;7.006;2022-12-18T08:26:36;28.03;;;17.23;;
14268;SDS011;7218;51.480;7.006;2022-12-18T08:29:03;28.33;;;17.60;;
14268;SDS011;7218;51.480;7.006;2022-12-18T08:31:29;28.43;;;16.53;;
14268;SDS011;7218;51.480;7.006;2022-12-18T08:33:56;32.47;;;18.60;;
14268;SDS011;7218;51.480;7.006;2022-12-18T08:36:24;29.97;;;18.43;;
14268;SDS011;7218;51.480;7.006;2022-12-18T08:38:51;31.37;;;18.57;;
14268;SDS011;7218;51.480;7.006;2022-12-18T08:41:18;28.37;;;17.63;;
14268;SDS011;7218;51.480;7.006;2022-12-18T08:43:46;30.40;;;18.83;;
14268;SDS011;7218;51.480;7.006;2022-12-18T08:46:32;29.70;;;18.10;;
14268;SDS011;7218;51.480;7.006;2022-12-18T08:49:01;29.90;;;18.10;;
14268;SDS011;7218;51.480;7.006;2022-12-18T08:51:31;29.17;;;17.77;;
14268;SDS011;7218;51.480;7.006;2022-12-18T08:53:58;28.60;;;17.00;;
14268;SDS011;7218;51.480;7.006;2022-12-18T08:56:28;27.37;;;16.67;;
14268;SDS011;7218;51.480;7.006;2022-12-18T08:58:57;26.17;;;16.60;;
14268;SDS011;7218;51.480;7.006;2022-12-18T09:01:24;27.27;;;16.53;;
14268;SDS011;7218;51.480;7.006;2022-12-18T09:03:51;26.67;;;16.87;;
14268;SDS011;7218;51.480;7.006;2022-12-18T09:06:19;26.60;;;16.70;;
14268;SDS011;7218;51.480;7.006;2022-12-18T09:08:48;26.63;;;17.03;;
14268;SDS011;7218;51.480;7.006;2022-12-18T09:11:18;26.83;;;16.67;;
14268;SDS011;7218;51.480;7.006;2022-12-18T09:13:46;25.27;;;16.23;;
14268;SDS011;7218;51.480;7.006;2022-12-18T09:16:14;25.47;;;16.50;;
14268;SDS011;7218;51.480;7.006;2022-12-18T09:18:42;23.57;;;16.00;;
14268;SDS011;7218;51.480;7.006;2022-12-18T09:21:09;25.50;;;15.77;;
14268;SDS011;7218;51.480;7.006;2022-12-18T09:23:36;23.83;;;15.70;;
14268;SDS011;7218;51.480;7.006;2022-12-18T09:26:03;25.00;;;15.43;;
14268;SDS011;7218;51.480;7.006;2022-12-18T09:28:30;25.50;;;15.17;;
14268;SDS011;7218;51.480;7.006;2022-12-18T09:30:56;27.13;;;15.27;;
14268;SDS011;7218;51.480;7.006;2022-12-18T09:33:24;23.70;;;14.83;;
14268;SDS011;7218;51.480;7.006;2022-12-18T09:35:50;23.13;;;14.83;;
14268;SDS011;7218;51.480;7.006;2022-12-18T09:38:18;23.80;;;14.77;;
14268;SDS011;7218;51.480;7.006;2022-12-18T09:40:47;22.83;;;14.83;;
14268;SDS011;7218;51.480;7.006;2022-12-18T09:43:17;22.37;;;14.40;;
14268;SDS011;7218;51.480;7.006;2022-12-18T09:45:46;23.67;;;14.43;;
14268;SDS011;7218;51.480;7.006;2022-12-18T09:48:15;21.77;;;14.67;;
14268;SDS011;7218;51.480;7.006;2022-12-18T09:50:48;21.93;;;14.37;;
14268;SDS011;7218;51.480;7.006;2022-12-18T09:53:19;21.37;;;14.07;;
14268;SDS011;7218;51.480;7.006;2022-12-18T09:55:51;20.77;;;14.10;;
14268;SDS011;7218;51.480;7.006;2022-12-18T09:58:20;22.90;;;15.13;;
14268;SDS011;7218;51.480;7.006;2022-12-18T10:00:54;22.77;;;14.47;;
14268;SDS011;7218;51.480;7.006;2022-12-18T10:03:21;21.13;;;14.15;;
14268;SDS011;7218;51.480;7.006;2022-12-18T10:05:52;22.17;;;14.43;;
14268;SDS011;7218;51.480;7.006;2022-12-18T10:08:28;21.90;;;14.23;;
14268;SDS011;7218;51.480;7.006;2022-12-18T10:11:11;20.60;;;13.53;;
14268;SDS011;7218;51.480;7.006;2022-12-18T10:13:49;21.80;;;13.95;;
14268;SDS011;7218;51.480;7.006;2022-12-18T10:16:22;21.88;;;13.50;;
14268;SDS011;7218;51.480;7.006;2022-12-18T10:19:01;21.63;;;13.85;;
14268;SDS011;7218;51.480;7.006;2022-12-18T10:21:44;20.90;;;13.63;;
14268;SDS011;7218;51.480;7.006;2022-12-18T10:24:19;19.73;;;13.60;;
14268;SDS011;7218;51.480;7.006;2022-12-18T10:26:51;20.33;;;13.60;;
14268;SDS011;7218;51.480;7.006;2022-12-18T10:29:19;18.35;;;13.20;;
14268;SDS011;7218;51.480;7.006;2022-12-18T10:31:45;22.08;;;12.63;;
14268;SDS011;7218;51.480;7.006;2022-12-18T10:34:12;18.58;;;12.50;;
14268;SDS011;7218;51.480;7.006;2022-12-18T10:36:39;17.77;;;12.65;;
14268;SDS011;7218;51.480;7.006;2022-12-18T10:41:52;16.92;;;11.50;;
14268;SDS011;7218;51.480;7.006;2022-12-18T10:44:36;17.52;;;11.88;;
14268;SDS011;7218;51.480;7.006;2022-12-18T10:47:04;16.48;;;11.20;;
14268;SDS011;7218;51.480;7.006;2022-12-18T10:49:37;22.65;;;13.45;;
14268;SDS011;7218;51.480;7.006;2022-12-18T10:52:14;18.05;;;12.45;;
14268;SDS011;7218;51.480;7.006;2022-12-18T10:54:48;18.27;;;10.90;;
14268;SDS011;7218;51.480;7.006;2022-12-18T10:57:16;12.98;;;9.80;;
14268;SDS011;7218;51.480;7.006;2022-12-18T10:59:55;12.77;;;7.55;;
14268;SDS011;7218;51.480;7.006;2022-12-18T11:02:25;11.13;;;7.35;;
14268;SDS011;7218;51.480;7.006;2022-12-18T11:04:54;13.15;;;8.77;;
14268;SDS011;7218;51.480;7.006;2022-12-18T11:07:20;9.98;;;6.95;;
14268;SDS011;7218;51.480;7.006;2022-12-18T11:09:59;11.65;;;7.60;;
14268;SDS011;7218;51.480;7.006;2022-12-18T11:12:26;9.13;;;6.10;;
14268;SDS011;7218;51.480;7.006;2022-12-18T11:14:55;7.47;;;5.10;;
14268;SDS011;7218;51.480;7.006;2022-12-18T11:17:25;8.15;;;6.57;;
14268;SDS011;7218;51.480;7.006;2022-12-18T11:19:56;21.88;;;16.88;;
14268;SDS011;7218;51.480;7.006;2022-12-18T11:22:24;13.38;;;10.25;;
14268;SDS011;7218;51.480;7.006;2022-12-18T11:24:54;13.35;;;10.65;;
14268;SDS011;7218;51.480;7.006;2022-12-18T11:27:23;12.10;;;10.00;;
14268;SDS011;7218;51.480;7.006;2022-12-18T11:29:50;14.25;;;9.50;;
14268;SDS011;7218;51.480;7.006;2022-12-18T11:32:20;16.95;;;11.77;;
14268;SDS011;7218;51.480;7.006;2022-12-18T11:34:55;19.48;;;13.13;;
14268;SDS011;7218;51.480;7.006;2022-12-18T11:37:27;20.58;;;13.82;;
14268;SDS011;7218;51.480;7.006;2022-12-18T11:39:56;20.13;;;14.45;;
14268;SDS011;7218;51.480;7.006;2022-12-18T11:42:28;20.80;;;14.85;;
14268;SDS011;7218;51.480;7.006;2022-12-18T11:45:03;24.45;;;14.45;;
14268;SDS011;7218;51.480;7.006;2022-12-18T11:47:48;24.00;;;15.13;;
14268;SDS011;7218;51.480;7.006;2022-12-18T11:50:19;23.80;;;15.80;;
14268;SDS011;7218;51.480;7.006;2022-12-18T11:52:49;22.40;;;15.48;;
14268;SDS011;7218;51.480;7.006;2022-12-18T11:55:19;22.95;;;15.35;;
14268;SDS011;7218;51.480;7.006;2022-12-18T11:57:54;21.08;;;15.15;;
14268;SDS011;7218;51.480;7.006;2022-12-18T12:00:25;20.85;;;15.27;;
14268;SDS011;7218;51.480;7.006;2022-12-18T12:03:11;25.38;;;15.27;;
14268;SDS011;7218;51.480;7.006;2022-12-18T12:05:51;22.13;;;15.65;;
14268;SDS011;7218;51.480;7.006;2022-12-18T12:08:29;20.77;;;15.40;;
14268;SDS011;7218;51.480;7.006;2022-12-18T12:11:08;21.70;;;15.15;;
14268;SDS011;7218;51.480;7.006;2022-12-18T12:13:45;23.33;;;14.88;;
14268;SDS011;7218;51.480;7.006;2022-12-18T12:16:31;22.13;;;15.45;;
14268;SDS011;7218;51.480;7.006;2022-12-18T12:19:06;21.40;;;15.43;;
14268;SDS011;7218;51.480;7.006;2022-12-18T12:21:46;20.30;;;14.85;;
14268;SDS011;7218;51.480;7.006;2022-12-18T12:24:23;23.42;;;15.60;;
14268;SDS011;7218;51.480;7.006;2022-12-18T12:27:05;24.40;;;17.50;;
14268;SDS011;7218;51.480;7.006;2022-12-18T12:29:41;24.15;;;17.40;;
14268;SDS011;7218;51.480;7.006;2022-12-18T12:32:21;24.60;;;17.60;;
14268;SDS011;7218;51.480;7.006;2022-12-18T12:35:01;27.50;;;17.33;;
14268;SDS011;7218;51.480;7.006;2022-12-18T12:37:41;25.20;;;17.38;;
14268;SDS011;7218;51.480;7.006;2022-12-18T12:40:18;23.23;;;16.63;;
14268;SDS011;7218;51.480;7.006;2022-12-18T12:42:47;24.27;;;16.83;;
14268;SDS011;7218;51.480;7.006;2022-12-18T12:45:40;23.50;;;15.80;;
14268;SDS011;7218;51.480;7.006;2022-12-18T12:48:14;24.58;;;16.42;;
14268;SDS011;7218;51.480;7.006;2022-12-18T12:50:44;24.30;;;16.17;;
14268;SDS011;7218;51.480;7.006;2022-12-18T12:53:16;25.05;;;16.58;;
14268;SDS011;7218;51.480;7.006;2022-12-18T12:55:50;23.55;;;16.75;;
14268;SDS011;7218;51.480;7.006;2022-12-18T12:58:19;23.67;;;16.33;;
14268;SDS011;7218;51.480;7.006;2022-12-18T13:00:53;25.77;;;16.58;;
14268;SDS011;7218;51.480;7.006;2022-12-18T13:03:30;23.52;;;16.50;;
14268;SDS011;7218;51.480;7.006;2022-12-18T13:06:04;25.90;;;15.98;;
14268;SDS011;7218;51.480;7.006;2022-12-18T13:08:51;25.77;;;17.38;;
14268;SDS011;7218;51.480;7.006;2022-12-18T13:11:28;26.02;;;16.98;;
14268;SDS011;7218;51.480;7.006;2022-12-18T13:14:21;25.45;;;17.25;;
14268;SDS011;7218;51.480;7.006;2022-12-18T13:16:49;29.25;;;18.13;;
14268;SDS011;7218;51.480;7.006;2022-12-18T13:19:21;25.50;;;17.38;;
14268;SDS011;7218;51.480;7.006;2022-12-18T13:21:52;27.23;;;17.70;;
14268;SDS011;7218;51.480;7.006;2022-12-18T13:24:23;29.02;;;18.27;;
14268;SDS011;7218;51.480;7.006;2022-12-18T13:26:52;28.70;;;19.00;;
14268;SDS011;7218;51.480;7.006;2022-12-18T13:29:41;28.67;;;18.58;;
14268;SDS011;7218;51.480;7.006;2022-12-18T13:32:22;29.38;;;18.67;;
14268;SDS011;7218;51.480;7.006;2022-12-18T13:34:55;30.63;;;19.33;;
14268;SDS011;7218;51.480;7.006;2022-12-18T13:38:19;31.85;;;19.48;;
14268;SDS011;7218;51.480;7.006;2022-12-18T13:40:53;37.08;;;21.33;;
14268;SDS011;7218;51.480;7.006;2022-12-18T13:43:33;36.67;;;20.58;;
14268;SDS011;7218;51.480;7.006;2022-12-18T13:46:16;32.75;;;19.92;;
14268;SDS011;7218;51.480;7.006;2022-12-18T13:48:49;31.67;;;18.98;;
14268;SDS011;7218;51.480;7.006;2022-12-18T13:51:18;30.48;;;19.33;;
14268;SDS011;7218;51.480;7.006;2022-12-18T13:53:47;20.08;;;12.95;;
14268;SDS011;7218;51.480;7.006;2022-12-18T13:56:21;20.45;;;13.02;;
14268;SDS011;7218;51.480;7.006;2022-12-18T14:01:42;9.43;;;6.70;;
14268;SDS011;7218;51.480;7.006;2022-12-18T14:04:17;9.63;;;6.10;;
14268;SDS011;7218;51.480;7.006;2022-12-18T14:06:46;10.32;;;6.05;;
14268;SDS011;7218;51.480;7.006;2022-12-18T14:09:34;8.65;;;5.97;;
14268;SDS011;7218;51.480;7.006;2022-12-18T14:12:03;10.32;;;6.00;;
14268;SDS011;7218;51.480;7.006;2022-12-18T14:14:49;10.05;;;6.95;;
14268;SDS011;7218;51.480;7.006;2022-12-18T14:17:19;16.60;;;7.95;;
14268;SDS011;7218;51.480;7.006;2022-12-18T14:19:46;12.25;;;7.32;;
14268;SDS011;7218;51.480;7.006;2022-12-18T14:22:15;21.05;;;10.85;;
14268;SDS011;7218;51.480;7.006;2022-12-18T14:24:44;13.00;;;7.80;;
14268;SDS011;7218;51.480;7.006;2022-12-18T14:27:21;13.65;;;8.25;;
14268;SDS011;7218;51.480;7.006;2022-12-18T14:29:50;18.95;;;10.45;;
14268;SDS011;7218;51.480;7.006;2022-12-18T14:32:19;16.65;;;9.43;;
14268;SDS011;7218;51.480;7.006;2022-12-18T14:34:47;11.80;;;6.90;;
14268;SDS011;7218;51.480;7.006;2022-12-18T14:37:16;18.15;;;8.10;;
14268;SDS011;7218;51.480;7.006;2022-12-18T14:39:52;18.00;;;8.40;;
14268;SDS011;7218;51.480;7.006;2022-12-18T14:42:20;11.88;;;7.68;;
14268;SDS011;7218;51.480;7.006;2022-12-18T14:44:46;12.15;;;6.85;;
14268;SDS011;7218;51.480;7.006;2022-12-18T14:47:13;20.48;;;10.60;;
14268;SDS011;7218;51.480;7.006;2022-12-18T14:49:42;19.35;;;11.38;;
14268;SDS011;7218;51.480;7.006;2022-12-18T14:52:15;12.52;;;7.90;;
14268;SDS011;7218;51.480;7.006;2022-12-18T14:54:48;13.38;;;9.23;;
14268;SDS011;7218;51.480;7.006;2022-12-18T14:57:16;15.00;;;7.55;;
14268;SDS011;7218;51.480;7.006;2022-12-18T14:59:48;10.38;;;7.43;;
14268;SDS011;7218;51.480;7.006;2022-12-18T15:02:15;9.85;;;6.72;;
14268;SDS011;7218;51.480;7.006;2022-12-18T15:04:53;10.75;;;6.80;;